Terminal Aerodrome Forecast
Issued by NWS Bismarck, ND

Home | Current Version | Previous Version | Text Only | Print | Product List | Glossary Off
Versions: 1 2 3 4 5 6 7 8 9 10 11 12

000
FTUS43 KBIS 250550
TAFISN
TAF
KISN 250550Z 2506/2606 VRB05KT P6SM SCT100
     FM251600 23010KT P6SM SCT100 BKN150
     FM251900 24012KT P6SM VCSH BKN120
     FM260100 19008KT P6SM SCT100=

USA.gov is the U.S. government's official web portal to all federal, state and local government web resources and services.